Time;durP1;ratioP1;P1;durP2;ratioP2;P2;SDS_P1;SDS_P2;PMS_P1;PMS_P2;Temp;Humidity;BMP_temperature;BMP_pressure;BME280_temperature;BME280_humidity;BME280_pressure;Samples;Min_cycle;Max_cycle;Signal;HPM_P1;HPM_P2
2022/09/24 00:01:52;;;;;;;70.05;43.28;;;14.20;95.30;;;;;;5114668;28;20404;-75
2022/09/24 00:04:18;;;;;;;62.58;39.13;;;14.30;95.30;;;;;;5114807;28;20046;-76
2022/09/24 00:06:46;;;;;;;77.90;45.50;;;14.30;95.70;;;;;;5098190;28;20035;-75
2022/09/24 00:09:14;;;;;;;70.40;42.38;;;14.30;95.60;;;;;;5097857;28;20046;-75
2022/09/24 00:11:42;;;;;;;70.00;45.20;;;14.20;95.40;;;;;;5081098;28;20510;-75
2022/09/24 00:14:08;;;;;;;61.38;37.70;;;14.30;95.40;;;;;;5097958;28;20039;-75
2022/09/24 00:16:34;;;;;;;69.32;43.53;;;14.20;95.30;;;;;;5114864;28;20043;-75
2022/09/24 00:19:01;;;;;;;79.68;46.33;;;14.30;95.50;;;;;;5097532;28;20381;-75
2022/09/24 00:21:30;;;;;;;71.88;44.33;;;14.20;95.80;;;;;;5114865;28;20552;-75
2022/09/24 00:23:58;;;;;;;69.78;42.72;;;14.20;95.60;;;;;;5114578;28;20036;-75
2022/09/24 00:29:12;;;;;;;78.22;44.28;;;14.20;95.40;;;;;;5114836;28;20391;-75
2022/09/24 00:31:38;;;;;;;66.00;41.65;;;14.30;95.60;;;;;;5114361;28;20047;-75
2022/09/24 00:34:04;;;;;;;68.32;42.47;;;14.30;96.00;;;;;;5114127;28;20047;-76
2022/09/24 00:36:30;;;;;;;61.78;39.17;;;14.30;95.90;;;;;;5114146;28;20069;-74
2022/09/24 00:38:57;;;;;;;66.72;42.22;;;14.30;95.80;;;;;;5080659;28;20122;-75
2022/09/24 00:41:29;;;;;;;68.90;40.83;;;14.30;95.80;;;;;;5114479;28;20044;-75
2022/09/24 00:43:55;;;;;;;72.32;41.55;;;14.30;95.70;;;;;;5114234;28;20047;-75
2022/09/24 00:46:31;;;;;;;80.88;44.83;;;14.30;95.70;;;;;;5114351;28;20392;-75
2022/09/24 00:49:10;;;;;;;60.15;39.33;;;14.30;95.70;;;;;;5097293;28;20050;-74
2022/09/24 00:51:37;;;;;;;62.05;40.67;;;14.30;95.60;;;;;;5097094;28;20043;-75
2022/09/24 00:54:13;;;;;;;60.95;40.97;;;14.30;95.40;;;;;;5114056;28;20168;-75
2022/09/24 00:56:42;;;;;;;60.22;38.58;;;14.30;95.20;;;;;;5113975;28;20075;-76
2022/09/24 00:59:10;;;;;;;54.25;37.55;;;14.30;95.20;;;;;;5113806;28;20071;-74
2022/09/24 01:01:36;;;;;;;54.42;36.95;;;14.40;95.20;;;;;;5114115;28;20043;-75
2022/09/24 01:04:05;;;;;;;50.20;36.03;;;14.30;95.40;;;;;;5113867;28;20518;-75
2022/09/24 01:06:30;;;;;;;61.65;38.45;;;14.30;95.50;;;;;;5113909;28;20044;-74
2022/09/24 01:08:58;;;;;;;65.43;39.83;;;14.30;95.70;;;;;;5080173;28;20376;-75
2022/09/24 01:12:02;;;;;;;46.05;33.17;;;14.30;95.60;;;;;;5114832;28;20040;-76
2022/09/24 01:14:42;;;;;;;58.08;37.03;;;14.30;95.70;;;;;;5092037;28;20087;-75
2022/09/24 01:17:36;;;;;;;53.03;34.45;;;14.30;95.70;;;;;;5113596;28;20524;-75
2022/09/24 01:20:45;;;;;;;58.53;40.40;;;14.30;95.40;;;;;;5113456;28;20132;-74
2022/09/24 01:23:44;;;;;;;42.13;31.15;;;14.30;95.40;;;;;;5113541;28;20502;-74
2022/09/24 01:26:58;;;;;;;47.67;34.15;;;14.30;95.30;;;;;;5113605;28;20048;-74
2022/09/24 01:29:24;;;;;;;58.47;39.15;;;14.30;95.30;;;;;;5015129;28;20045;-74
2022/09/24 01:32:04;;;;;;;60.63;40.28;;;14.20;95.10;;;;;;5015171;28;20045;-74
2022/09/24 01:34:42;;;;;;;56.90;38.90;;;14.30;95.20;;;;;;5059256;28;20058;-76
2022/09/24 01:37:08;;;;;;;46.08;33.72;;;14.30;95.10;;;;;;5113142;28;20052;-74
2022/09/24 01:39:37;;;;;;;41.97;32.25;;;14.30;95.20;;;;;;5113145;28;20040;-75
2022/09/24 01:42:04;;;;;;;52.88;37.75;;;14.40;95.10;;;;;;5113333;28;20122;-75
2022/09/24 01:44:33;;;;;;;58.22;39.58;;;14.40;95.10;;;;;;5112932;28;20071;-76
2022/09/24 01:46:59;;;;;;;65.75;42.20;;;14.40;95.10;;;;;;5112452;28;20474;-75
2022/09/24 01:49:25;;;;;;;57.88;39.88;;;14.40;95.10;;;;;;5095963;28;20075;-76
2022/09/24 01:51:57;;;;;;;61.80;42.65;;;14.40;95.10;;;;;;5112897;28;20074;-78
2022/09/24 01:54:35;;;;;;;63.78;42.05;;;14.40;95.00;;;;;;5112892;28;20047;-75
2022/09/24 01:57:29;;;;;;;64.40;41.53;;;14.40;94.90;;;;;;5113034;28;20444;-76
2022/09/24 01:59:56;;;;;;;45.83;32.15;;;14.40;94.90;;;;;;5112719;28;20043;-76
2022/09/24 02:02:33;;;;;;;30.05;21.98;;;14.40;94.90;;;;;;5112750;28;20044;-77
2022/09/24 02:05:18;;;;;;;26.55;19.42;;;14.40;94.90;;;;;;5112743;28;20526;-77
2022/09/24 02:07:50;;;;;;;27.58;16.88;;;14.40;94.90;;;;;;5095712;28;20061;-74
2022/09/24 02:10:19;;;;;;;20.95;14.73;;;14.40;94.80;;;;;;5112619;28;20118;-76
2022/09/24 02:12:51;;;;;;;16.80;12.02;;;14.40;94.80;;;;;;5112567;28;20127;-77
2022/09/24 02:15:32;;;;;;;23.15;15.02;;;14.40;94.80;;;;;;5095525;28;20046;-77
2022/09/24 02:18:02;;;;;;;23.92;14.32;;;14.40;94.70;;;;;;5112508;28;20077;-76
2022/09/24 02:20:30;;;;;;;17.55;12.00;;;14.30;94.70;;;;;;5112466;28;20046;-76
2022/09/24 02:22:56;;;;;;;19.83;12.27;;;14.30;94.60;;;;;;5112436;28;20126;-77
2022/09/24 02:25:32;;;;;;;14.07;9.88;;;14.30;94.60;;;;;;5112244;28;20550;-76
2022/09/24 02:27:58;;;;;;;13.48;7.28;;;14.30;94.60;;;;;;5112411;28;20040;-76
2022/09/24 02:30:24;;;;;;;14.73;6.68;;;14.30;94.60;;;;;;5112416;28;20051;-77
2022/09/24 02:32:52;;;;;;;15.55;5.82;;;14.30;94.50;;;;;;5095617;28;20122;-77
2022/09/24 02:35:18;;;;;;;13.15;6.50;;;14.30;94.40;;;;;;5095489;28;20043;-76
2022/09/24 02:37:43;;;;;;;7.35;4.13;;;14.30;94.30;;;;;;5112123;28;20059;-79
2022/09/24 02:40:12;;;;;;;9.55;4.13;;;14.30;94.30;;;;;;5112286;28;20471;-75
2022/09/24 02:42:39;;;;;;;9.45;4.40;;;14.30;94.30;;;;;;5112120;28;20400;-75
2022/09/24 02:45:06;;;;;;;9.55;3.95;;;14.30;94.30;;;;;;5112291;28;20081;-76
2022/09/24 02:47:32;;;;;;;9.20;3.90;;;14.20;94.30;;;;;;5112083;28;20122;-76
2022/09/24 02:49:57;;;;;;;8.70;4.07;;;14.20;94.20;;;;;;5112016;28;20050;-76
2022/09/24 02:52:23;;;;;;;12.02;3.58;;;14.20;94.20;;;;;;5111968;28;20043;-76
2022/09/24 02:54:49;;;;;;;10.35;3.50;;;14.20;94.20;;;;;;5111947;28;20040;-75
2022/09/24 02:57:16;;;;;;;9.90;3.17;;;14.20;94.20;;;;;;5113523;28;20054;-75
2022/09/24 02:59:42;;;;;;;12.45;4.55;;;14.20;94.20;;;;;;5099145;28;20289;-76
2022/09/24 03:02:08;;;;;;;7.28;2.90;;;14.20;94.10;;;;;;5099295;28;20080;-76
2022/09/24 03:04:33;;;;;;;17.85;3.30;;;14.20;94.10;;;;;;5116305;28;20040;-75
2022/09/24 03:06:59;;;;;;;9.82;2.50;;;14.20;94.00;;;;;;5116443;28;20035;-76
2022/09/24 03:09:25;;;;;;;6.95;2.75;;;14.20;94.00;;;;;;5115971;28;20566;-75
2022/09/24 03:11:50;;;;;;;9.15;2.60;;;14.20;93.90;;;;;;5116292;28;20036;-76
2022/09/24 03:14:16;;;;;;;9.20;2.78;;;14.20;93.90;;;;;;5116142;28;20092;-76
2022/09/24 03:16:42;;;;;;;11.77;2.72;;;14.20;93.80;;;;;;5115906;28;20051;-75
2022/09/24 03:19:08;;;;;;;15.00;3.15;;;14.20;93.60;;;;;;5115772;28;20046;-75
2022/09/24 03:21:33;;;;;;;9.75;2.85;;;14.20;93.60;;;;;;5098827;28;20028;-74
2022/09/24 03:23:59;;;;;;;12.57;3.35;;;14.20;93.40;;;;;;5115759;28;20084;-76
2022/09/24 03:26:25;;;;;;;13.57;2.67;;;14.10;93.40;;;;;;5081794;28;20078;-77
2022/09/24 03:28:51;;;;;;;7.22;2.90;;;14.20;93.30;;;;;;5115625;28;20491;-75
2022/09/24 03:31:16;;;;;;;7.85;2.30;;;14.10;93.30;;;;;;5098867;28;20064;-74
2022/09/24 03:33:47;;;;;;;8.63;2.65;;;14.10;93.30;;;;;;5115559;28;20535;-75
2022/09/24 03:36:23;;;;;;;7.95;2.15;;;14.10;93.20;;;;;;5115593;28;20070;-75
2022/09/24 03:38:51;;;;;;;10.70;3.10;;;14.10;93.20;;;;;;5115747;28;20051;-75
2022/09/24 03:41:17;;;;;;;14.27;2.90;;;14.10;93.10;;;;;;5115449;28;20046;-75
2022/09/24 03:43:43;;;;;;;15.77;3.00;;;14.10;93.10;;;;;;5115382;28;20077;-76
2022/09/24 03:46:11;;;;;;;10.38;2.55;;;14.10;93.10;;;;;;5115511;28;20071;-75
2022/09/24 03:48:39;;;;;;;9.18;2.85;;;14.10;93.10;;;;;;5115663;28;20213;-76
2022/09/24 03:51:07;;;;;;;9.27;2.58;;;14.10;93.00;;;;;;5115320;28;20051;-75
2022/09/24 03:53:33;;;;;;;12.30;2.83;;;14.10;93.00;;;;;;5115184;28;20063;-76
2022/09/24 03:56:01;;;;;;;15.27;3.40;;;14.10;92.80;;;;;;5115085;28;20054;-76
2022/09/24 03:58:28;;;;;;;11.85;3.13;;;14.10;92.70;;;;;;5115092;28;20545;-76
2022/09/24 04:00:54;;;;;;;11.40;3.10;;;14.00;92.50;;;;;;5115087;28;20047;-75
2022/09/24 04:03:24;;;;;;;11.73;3.20;;;14.10;92.30;;;;;;5115341;28;20066;-76
2022/09/24 04:05:50;;;;;;;18.27;2.85;;;14.10;92.30;;;;;;5115177;28;20494;-76
2022/09/24 04:08:18;;;;;;;14.48;3.15;;;14.00;92.20;;;;;;5114110;28;20050;-77
2022/09/24 04:10:50;;;;;;;13.90;2.88;;;14.10;92.10;;;;;;5114807;28;20492;-75
2022/09/24 04:13:17;;;;;;;19.50;3.50;;;14.10;92.00;;;;;;5115128;28;20610;-74
2022/09/24 04:15:43;;;;;;;14.35;2.97;;;14.00;92.10;;;;;;5114777;28;20096;-75
2022/09/24 04:18:09;;;;;;;11.27;2.53;;;14.00;92.00;;;;;;5114698;28;20039;-75
2022/09/24 04:20:36;;;;;;;14.95;2.38;;;14.00;91.90;;;;;;5114732;28;20510;-76
2022/09/24 04:23:02;;;;;;;14.35;3.05;;;14.00;91.90;;;;;;5114649;28;20040;-76
2022/09/24 04:25:29;;;;;;;18.63;3.13;;;14.10;91.70;;;;;;5114582;28;20038;-77
2022/09/24 04:27:57;;;;;;;11.30;2.67;;;14.00;91.60;;;;;;5114581;28;20051;-76
2022/09/24 04:30:24;;;;;;;9.57;2.30;;;14.00;91.70;;;;;;5114544;28;20083;-75
2022/09/24 04:32:50;;;;;;;13.05;2.65;;;14.00;91.70;;;;;;5114536;28;20055;-75
2022/09/24 04:35:21;;;;;;;10.82;2.78;;;14.00;91.70;;;;;;5114639;28;20036;-74
2022/09/24 04:37:48;;;;;;;9.20;2.45;;;13.90;91.70;;;;;;5097240;28;20056;-75
2022/09/24 04:40:15;;;;;;;6.72;1.88;;;13.90;91.80;;;;;;5114216;28;20040;-74
2022/09/24 04:42:41;;;;;;;14.23;2.35;;;13.90;91.80;;;;;;5114288;28;20542;-76
2022/09/24 04:45:09;;;;;;;10.77;2.42;;;13.80;91.70;;;;;;5114463;28;20401;-73
2022/09/24 04:47:36;;;;;;;8.82;2.90;;;13.80;91.70;;;;;;5113942;28;20047;-74
2022/09/24 04:50:03;;;;;;;14.45;3.35;;;13.80;91.60;;;;;;5114138;28;20044;-75
2022/09/24 04:52:31;;;;;;;10.57;2.03;;;13.70;91.60;;;;;;5114391;28;20062;-74
2022/09/24 04:54:57;;;;;;;7.95;1.90;;;13.70;91.60;;;;;;5113951;28;20071;-77
2022/09/24 04:57:23;;;;;;;5.57;1.73;;;13.60;91.50;;;;;;5114236;28;20055;-75
2022/09/24 04:59:49;;;;;;;9.68;3.40;;;13.60;91.60;;;;;;5114026;28;20399;-74
2022/09/24 05:02:15;;;;;;;10.52;2.17;;;13.60;91.50;;;;;;5080028;28;20396;-74
2022/09/24 05:04:42;;;;;;;10.10;2.65;;;13.50;91.50;;;;;;5113828;28;20051;-76
2022/09/24 05:07:09;;;;;;;12.43;2.47;;;13.50;91.50;;;;;;5113816;28;20115;-75
2022/09/24 05:09:34;;;;;;;8.93;1.95;;;13.50;91.50;;;;;;5113760;28;20048;-75
2022/09/24 05:12:01;;;;;;;11.60;2.25;;;13.50;91.60;;;;;;5113702;28;20445;-75
2022/09/24 05:14:27;;;;;;;12.65;3.15;;;13.50;91.60;;;;;;5096577;28;20128;-76
2022/09/24 05:16:53;;;;;;;13.48;3.10;;;13.40;91.60;;;;;;5113828;28;20448;-74
2022/09/24 05:19:19;;;;;;;7.60;2.33;;;13.40;91.60;;;;;;5113415;28;20531;-76
2022/09/24 05:21:45;;;;;;;10.73;2.35;;;13.40;91.70;;;;;;5096797;28;20429;-75
2022/09/24 05:24:11;;;;;;;9.55;2.20;;;13.40;91.70;;;;;;5113624;28;20057;-75
2022/09/24 05:29:21;;;;;;;14.18;2.75;;;13.40;91.60;;;;;;5113180;28;20054;-75
2022/09/24 05:31:46;;;;;;;13.43;2.63;;;13.40;91.50;;;;;;5112804;28;20039;-76
2022/09/24 05:34:13;;;;;;;8.05;2.03;;;13.40;91.30;;;;;;5112854;28;20140;-73
2022/09/24 05:36:39;;;;;;;19.08;3.25;;;13.50;91.20;;;;;;5113085;28;20050;-75
2022/09/24 05:39:05;;;;;;;12.02;3.38;;;13.50;91.10;;;;;;5096295;28;20054;-76
2022/09/24 05:41:34;;;;;;;13.93;3.58;;;13.50;91.00;;;;;;5113372;28;20044;-75
2022/09/24 05:44:00;;;;;;;13.02;2.88;;;13.50;90.90;;;;;;5113370;28;20421;-76
2022/09/24 05:46:26;;;;;;;10.02;2.45;;;13.50;90.90;;;;;;5096038;28;20036;-75
2022/09/24 05:48:51;;;;;;;17.00;2.42;;;13.50;90.90;;;;;;5095832;28;20035;-74
2022/09/24 05:51:17;;;;;;;12.07;3.67;;;13.50;91.00;;;;;;5112975;28;20078;-75
2022/09/24 05:53:43;;;;;;;13.13;3.22;;;13.50;91.00;;;;;;5113163;28;20047;-75
2022/09/24 05:56:09;;;;;;;6.68;1.80;;;13.50;91.10;;;;;;5113105;28;20040;-75
2022/09/24 05:58:35;;;;;;;13.73;2.53;;;13.50;90.90;;;;;;5095897;28;20046;-74
2022/09/24 06:01:01;;;;;;;11.13;2.15;;;13.50;90.80;;;;;;5112980;28;20410;-73
2022/09/24 06:03:28;;;;;;;9.18;2.30;;;13.50;90.90;;;;;;5112677;28;20152;-73
2022/09/24 06:05:55;;;;;;;13.70;2.08;;;13.60;90.80;;;;;;5095670;28;20067;-75
2022/09/24 06:08:21;;;;;;;9.20;1.90;;;13.60;90.70;;;;;;5112646;28;20422;-75
2022/09/24 06:10:47;;;;;;;9.00;2.45;;;13.60;90.60;;;;;;5112907;28;20040;-74
2022/09/24 06:13:18;;;;;;;13.10;2.58;;;13.60;90.60;;;;;;5112616;28;20536;-75
2022/09/24 06:15:44;;;;;;;12.95;2.30;;;13.60;90.60;;;;;;5112491;28;20039;-75
2022/09/24 06:18:10;;;;;;;9.55;2.00;;;13.70;90.50;;;;;;5112483;28;20114;-76
2022/09/24 06:20:37;;;;;;;13.60;2.75;;;13.60;90.70;;;;;;5112440;28;20051;-77
2022/09/24 06:23:03;;;;;;;8.65;2.08;;;13.70;90.60;;;;;;5112444;28;20483;-75
2022/09/24 06:25:29;;;;;;;12.15;2.55;;;13.70;90.70;;;;;;5112277;28;20096;-75
2022/09/24 06:28:03;;;;;;;13.25;2.72;;;13.70;90.70;;;;;;5095357;28;20044;-75
2022/09/24 06:30:32;;;;;;;9.07;2.63;;;13.80;90.40;;;;;;5095382;28;20067;-76
2022/09/24 06:33:02;;;;;;;13.82;2.83;;;13.80;90.50;;;;;;5111847;28;20039;-75
2022/09/24 06:35:27;;;;;;;9.15;2.40;;;13.80;90.50;;;;;;5112233;28;20040;-76
2022/09/24 06:37:53;;;;;;;13.70;3.47;;;13.80;90.70;;;;;;5112084;28;20063;-75
2022/09/24 06:40:19;;;;;;;13.60;2.53;;;13.90;90.60;;;;;;5095215;28;20047;-77
2022/09/24 06:42:50;;;;;;;9.43;2.47;;;13.90;90.60;;;;;;5112106;28;20042;-76
2022/09/24 06:45:16;;;;;;;15.10;2.35;;;13.90;90.70;;;;;;5112075;28;20494;-75
2022/09/24 06:47:41;;;;;;;14.98;2.83;;;13.90;90.60;;;;;;5112084;28;20071;-76
2022/09/24 06:50:07;;;;;;;11.80;2.20;;;14.00;90.60;;;;;;5095428;28;20039;-75
2022/09/24 06:52:33;;;;;;;21.38;3.13;;;14.00;90.40;;;;;;5095433;28;20128;-76
2022/09/24 06:54:59;;;;;;;12.02;3.28;;;14.00;90.20;;;;;;5112278;28;20507;-75
2022/09/24 06:57:24;;;;;;;11.90;2.15;;;14.00;90.30;;;;;;5078222;28;20075;-76
2022/09/24 06:59:50;;;;;;;10.38;2.30;;;14.00;90.40;;;;;;5078251;28;20076;-76
2022/09/24 07:02:16;;;;;;;8.65;2.42;;;14.00;90.30;;;;;;5095311;28;20043;-77
2022/09/24 07:04:42;;;;;;;9.27;2.78;;;14.00;90.30;;;;;;5111990;28;20039;-76
2022/09/24 07:09:52;;;;;;;9.18;3.03;;;14.10;90.10;;;;;;5097542;28;20050;-78
2022/09/24 07:12:18;;;;;;;9.70;2.25;;;14.20;90.10;;;;;;5111852;28;20047;-77
2022/09/24 07:14:43;;;;;;;9.30;1.85;;;14.30;90.10;;;;;;5094896;28;20047;-76
2022/09/24 07:17:09;;;;;;;7.10;2.05;;;14.30;89.80;;;;;;5111905;28;20046;-77
2022/09/24 07:19:34;;;;;;;7.97;2.03;;;14.30;89.70;;;;;;5111741;28;20047;-76
2022/09/24 07:22:00;;;;;;;12.02;2.92;;;14.40;89.60;;;;;;5094867;28;20081;-75
2022/09/24 07:24:26;;;;;;;15.38;2.58;;;14.40;89.50;;;;;;5094988;28;20040;-77
2022/09/24 07:26:51;;;;;;;11.43;2.60;;;14.40;89.40;;;;;;5095065;28;20126;-77
2022/09/24 07:29:17;;;;;;;11.60;2.33;;;14.50;89.50;;;;;;5095127;28;20107;-76
2022/09/24 07:31:43;;;;;;;7.80;1.73;;;14.50;89.40;;;;;;5111737;28;20666;-77
2022/09/24 07:34:09;;;;;;;12.18;2.10;;;14.50;89.40;;;;;;5111957;28;20089;-77
2022/09/24 07:36:34;;;;;;;7.97;2.40;;;14.50;89.30;;;;;;5111427;28;20456;-76
2022/09/24 07:39:00;;;;;;;11.25;2.15;;;14.50;89.20;;;;;;5061051;28;20048;-75
2022/09/24 07:41:26;;;;;;;12.15;2.28;;;14.50;89.10;;;;;;5094953;28;20132;-75
2022/09/24 07:43:54;;;;;;;9.70;1.88;;;14.50;88.80;;;;;;5112451;28;20039;-76
2022/09/24 07:46:20;;;;;;;8.43;2.13;;;14.60;88.10;;;;;;5116667;28;20040;-76
2022/09/24 07:48:49;;;;;;;10.70;1.88;;;14.60;88.00;;;;;;5115699;28;20058;-77
2022/09/24 07:51:15;;;;;;;14.88;2.80;;;14.60;87.80;;;;;;5115535;28;20050;-77
2022/09/24 07:53:40;;;;;;;8.52;2.50;;;14.60;87.70;;;;;;5115473;28;20456;-77
2022/09/24 07:56:06;;;;;;;18.33;2.80;;;14.60;87.70;;;;;;5115131;28;20127;-76
2022/09/24 07:58:32;;;;;;;8.65;2.45;;;14.60;87.90;;;;;;5098159;28;20043;-75
2022/09/24 08:00:59;;;;;;;9.07;2.33;;;14.60;88.00;;;;;;5098144;28;20042;-76
2022/09/24 08:03:25;;;;;;;19.38;3.35;;;14.70;88.10;;;;;;5115060;28;20048;-76
2022/09/24 08:05:55;;;;;;;9.45;1.80;;;14.70;88.00;;;;;;5114965;28;20127;-76
2022/09/24 08:08:20;;;;;;;10.80;1.80;;;14.70;88.30;;;;;;5114683;28;20045;-77
2022/09/24 08:10:46;;;;;;;21.45;2.55;;;14.70;88.00;;;;;;5115254;28;20130;-77
2022/09/24 08:13:12;;;;;;;13.15;3.38;;;14.70;88.10;;;;;;5115175;28;20469;-77
2022/09/24 08:15:38;;;;;;;11.77;2.72;;;14.60;88.10;;;;;;5114724;28;20561;-77
2022/09/24 08:18:04;;;;;;;11.48;2.38;;;14.70;87.80;;;;;;5114769;28;20036;-76
2022/09/24 08:20:32;;;;;;;13.50;3.28;;;14.60;87.90;;;;;;5114675;28;20502;-78
2022/09/24 08:23:09;;;;;;;6.10;1.85;;;14.50;87.80;;;;;;5114790;28;20042;-76
2022/09/24 08:25:35;;;;;;;12.10;2.00;;;14.60;87.70;;;;;;5114649;28;20510;-76
2022/09/24 08:28:02;;;;;;;12.18;2.97;;;14.50;87.60;;;;;;5114656;28;20040;-74
2022/09/24 08:30:28;;;;;;;7.97;2.20;;;14.50;87.70;;;;;;5114573;28;20127;-74
2022/09/24 08:32:54;;;;;;;9.25;2.92;;;14.60;87.40;;;;;;5114802;28;20116;-75
2022/09/24 08:35:20;;;;;;;8.38;2.97;;;14.60;87.00;;;;;;5080647;28;20040;-76
2022/09/24 08:37:46;;;;;;;5.95;1.42;;;14.70;86.50;;;;;;5097268;28;20064;-76
2022/09/24 08:40:26;;;;;;;7.32;1.67;;;14.70;85.90;;;;;;5114277;28;20297;-75
2022/09/24 08:43:00;;;;;;;10.70;1.98;;;14.90;85.70;;;;;;5114401;28;20036;-75
2022/09/24 08:48:19;;;;;;;13.88;2.50;;;14.90;85.90;;;;;;5114571;28;20433;-75
2022/09/24 08:50:59;;;;;;;6.55;1.60;;;15.20;85.10;;;;;;5114519;28;20065;-76
2022/09/24 08:53:58;;;;;;;12.32;2.55;;;15.30;84.50;;;;;;5097397;28;20476;-74
2022/09/24 08:56:31;;;;;;;7.93;2.55;;;15.30;84.10;;;;;;5113895;28;20044;-76
2022/09/24 08:59:09;;;;;;;9.35;1.60;;;15.40;83.90;;;;;;5114261;28;20142;-75
2022/09/24 09:01:50;;;;;;;8.52;1.70;;;15.50;83.50;;;;;;5114067;28;20036;-77
2022/09/24 09:04:41;;;;;;;9.85;1.65;;;15.50;83.20;;;;;;5113737;28;20036;-76
2022/09/24 09:07:17;;;;;;;7.10;1.40;;;15.50;82.90;;;;;;5114194;28;20042;-76
2022/09/24 09:09:45;;;;;;;8.00;1.50;;;15.60;82.80;;;;;;5114413;28;20340;-75
2022/09/24 09:12:21;;;;;;;6.95;1.73;;;15.60;81.90;;;;;;5097105;28;20096;-77
2022/09/24 09:15:03;;;;;;;7.63;1.70;;;15.60;81.50;;;;;;5096862;28;20044;-75
2022/09/24 09:18:08;;;;;;;8.80;2.33;;;15.60;80.80;;;;;;5113813;28;20127;-75
2022/09/24 09:20:42;;;;;;;9.07;2.00;;;15.70;80.80;;;;;;5072491;28;20411;-75
2022/09/24 09:23:18;;;;;;;6.45;1.20;;;15.90;79.80;;;;;;5109987;28;20058;-76
2022/09/24 09:25:51;;;;;;;4.03;1.10;;;16.00;79.20;;;;;;5107603;28;20085;-76
2022/09/24 09:28:18;;;;;;;10.30;2.43;;;16.10;78.90;;;;;;5108920;28;20483;-76
2022/09/24 09:30:50;;;;;;;5.15;1.30;;;16.20;79.00;;;;;;5108911;28;20038;-78
2022/09/24 09:33:39;;;;;;;6.00;1.40;;;16.30;78.50;;;;;;5109754;28;20089;-79
2022/09/24 09:36:48;;;;;;;5.88;1.35;;;16.40;78.00;;;;;;5091300;28;20048;-78
2022/09/24 09:39:32;;;;;;;7.38;1.73;;;16.50;77.00;;;;;;5092236;28;20082;-77
2022/09/24 09:42:15;;;;;;;7.00;1.88;;;16.50;77.70;;;;;;5108619;28;20085;-77
2022/09/24 09:44:43;;;;;;;10.00;1.70;;;16.50;78.40;;;;;;5108980;28;20031;-77
2022/09/24 09:47:42;;;;;;;7.47;1.27;;;16.50;75.80;;;;;;5107680;28;20039;-76
2022/09/24 09:50:35;;;;;;;11.73;2.15;;;16.40;76.20;;;;;;5109143;28;20050;-75
2022/09/24 09:53:03;;;;;;;6.13;1.33;;;16.40;75.40;;;;;;5094776;28;20230;-77
2022/09/24 09:55:33;;;;;;;11.48;2.53;;;16.40;75.70;;;;;;5108704;28;20055;-76
2022/09/24 09:58:21;;;;;;;6.13;1.20;;;16.30;76.20;;;;;;5108216;28;20039;-77
2022/09/24 10:00:48;;;;;;;8.38;1.58;;;16.40;76.60;;;;;;5108475;28;20051;-78
2022/09/24 10:03:49;;;;;;;7.72;1.40;;;16.30;76.40;;;;;;5108612;28;20519;-78
2022/09/24 10:06:30;;;;;;;9.40;2.38;;;16.30;76.00;;;;;;5027499;28;20131;-78
2022/09/24 10:09:15;;;;;;;6.68;1.70;;;16.20;76.80;;;;;;5083144;28;20070;-76
2022/09/24 10:11:41;;;;;;;6.80;2.25;;;16.20;76.90;;;;;;5092216;28;20610;-77
2022/09/24 10:14:17;;;;;;;9.35;1.90;;;16.10;77.00;;;;;;5075820;28;20062;-78
2022/09/24 10:16:54;;;;;;;10.52;2.47;;;16.10;77.10;;;;;;5092693;28;20181;-76
2022/09/24 10:19:23;;;;;;;6.78;1.13;;;16.10;77.10;;;;;;5092436;28;20146;-79
2022/09/24 10:21:50;;;;;;;6.85;1.60;;;16.10;77.30;;;;;;5092492;28;20044;-76
2022/09/24 10:24:21;;;;;;;7.88;1.30;;;16.10;76.80;;;;;;5092431;28;20039;-78
2022/09/24 10:26:48;;;;;;;14.93;2.35;;;16.10;76.60;;;;;;5092532;28;20112;-78
2022/09/24 10:32:21;;;;;;;6.35;2.08;;;16.10;76.70;;;;;;5092625;28;20052;-79
2022/09/24 10:35:02;;;;;;;7.70;2.22;;;16.10;77.10;;;;;;5075797;28;20079;-80
2022/09/24 10:37:28;;;;;;;5.93;1.23;;;16.10;76.50;;;;;;5092210;28;20051;-79
2022/09/24 10:40:10;;;;;;;7.50;1.65;;;16.20;76.70;;;;;;5092474;28;20047;-77
2022/09/24 10:42:37;;;;;;;10.30;1.60;;;16.10;76.30;;;;;;5110914;28;20059;-78
2022/09/24 10:45:09;;;;;;;7.65;1.40;;;16.10;76.60;;;;;;5111936;28;20046;-79
2022/09/24 10:47:59;;;;;;;7.88;1.42;;;16.20;76.90;;;;;;5111923;28;20043;-79
2022/09/24 10:51:03;;;;;;;8.98;1.60;;;16.20;76.50;;;;;;5094740;28;20082;-78
2022/09/24 10:53:55;;;;;;;7.18;1.67;;;16.30;76.00;;;;;;5081095;28;20052;-79
2022/09/24 10:56:23;;;;;;;10.65;1.58;;;16.40;75.30;;;;;;5057759;28;20116;-78
2022/09/24 10:58:59;;;;;;;8.98;1.67;;;16.40;75.40;;;;;;5111987;28;20089;-79
2022/09/24 11:02:03;;;;;;;9.43;1.40;;;16.40;75.70;;;;;;5112000;28;20032;-78
2022/09/24 11:04:58;;;;;;;7.50;1.80;;;16.50;75.90;;;;;;5112206;28;20048;-79
2022/09/24 11:07:40;;;;;;;7.28;1.63;;;16.50;76.40;;;;;;5111920;28;20051;-79
2022/09/24 11:10:14;;;;;;;6.60;1.60;;;16.50;76.00;;;;;;5095034;28;20047;-79
2022/09/24 11:13:00;;;;;;;7.85;1.80;;;16.50;75.40;;;;;;5095204;28;20106;-79
2022/09/24 11:15:52;;;;;;;9.75;1.75;;;16.50;75.40;;;;;;5112127;28;20074;-79
2022/09/24 11:18:49;;;;;;;8.23;1.55;;;16.50;75.20;;;;;;5113521;28;20102;-79
2022/09/24 11:21:26;;;;;;;7.78;1.27;;;16.40;74.70;;;;;;5115908;28;20048;-78
2022/09/24 11:24:20;;;;;;;5.85;1.33;;;16.50;74.00;;;;;;5098912;28;20193;-79
2022/09/24 11:27:17;;;;;;;7.32;1.60;;;16.40;74.10;;;;;;5116094;28;20130;-79
2022/09/24 11:30:07;;;;;;;3.78;1.35;;;16.40;73.80;;;;;;5115745;28;20047;-79
2022/09/24 11:32:42;;;;;;;4.65;1.05;;;16.50;72.30;;;;;;5098734;28;20059;-79
2022/09/24 11:35:33;;;;;;;3.70;1.67;;;16.50;71.80;;;;;;5115588;28;20522;-79
2022/09/24 11:38:01;;;;;;;4.47;1.45;;;16.60;72.10;;;;;;5115533;28;20085;-79
2022/09/24 11:40:54;;;;;;;5.95;1.33;;;16.70;72.30;;;;;;5115478;28;20043;-79
2022/09/24 11:43:38;;;;;;;14.40;1.67;;;16.90;72.20;;;;;;5098495;28;20035;-79
2022/09/24 11:46:18;;;;;;;;;;;17.00;71.70;;;;;;5098871;28;20047;-78
2022/09/24 11:49:08;;;;;;;4.60;1.27;;;17.50;71.40;;;;;;5098457;28;19923;-79
2022/09/24 11:51:55;;;;;;;5.10;1.05;;;17.80;69.10;;;;;;5115317;28;20077;-78
2022/09/24 11:54:50;;;;;;;3.65;0.98;;;18.00;67.10;;;;;;5115419;28;20126;-80
2022/09/24 11:57:24;;;;;;;4.93;1.65;;;18.20;67.70;;;;;;5115491;28;20039;-79
2022/09/24 12:00:02;;;;;;;7.25;1.65;;;18.30;66.90;;;;;;5115248;28;20073;-79
2022/09/24 12:02:40;;;;;;;8.93;1.35;;;18.20;66.30;;;;;;5098175;28;20032;-79
2022/09/24 12:05:17;;;;;;;7.25;1.23;;;18.10;66.80;;;;;;5115089;28;20043;-79
2022/09/24 12:07:50;;;;;;;6.90;1.15;;;18.30;67.70;;;;;;5098347;28;20039;-79
2022/09/24 12:10:37;;;;;;;5.65;1.10;;;18.30;67.90;;;;;;5115299;28;20039;-79
2022/09/24 12:13:27;;;;;;;5.00;1.30;;;18.20;68.50;;;;;;5115269;28;20403;-80
2022/09/24 12:15:55;;;;;;;10.80;1.60;;;18.00;68.90;;;;;;5115191;28;20109;-78
2022/09/24 12:18:59;;;;;;;4.93;1.40;;;17.90;69.70;;;;;;5114769;28;20051;-79
2022/09/24 12:21:42;;;;;;;2.90;1.02;;;17.70;69.80;;;;;;5084118;28;20090;-79
2022/09/24 12:24:34;;;;;;;5.30;1.55;;;17.50;70.40;;;;;;5114736;28;20135;-79
2022/09/24 12:27:09;;;;;;;8.10;1.88;;;17.50;70.70;;;;;;5106336;28;20507;-79
2022/09/24 12:33:19;;;;;;;5.35;1.30;;;17.40;71.20;;;;;;5107195;28;20124;-79
2022/09/24 12:36:18;;;;;;;4.93;1.55;;;17.40;71.40;;;;;;5114404;28;20077;-79
2022/09/24 12:38:53;;;;;;;3.78;1.00;;;17.40;71.40;;;;;;5114602;28;20468;-79
2022/09/24 12:41:39;;;;;;;7.90;1.17;;;17.40;70.00;;;;;;5114425;28;20122;-79
2022/09/24 12:44:10;;;;;;;5.65;1.40;;;17.30;69.70;;;;;;5097252;28;20031;-79
2022/09/24 12:46:47;;;;;;;5.47;0.90;;;17.30;69.60;;;;;;5114307;28;20074;-79
2022/09/24 12:49:25;;;;;;;6.15;1.52;;;17.50;68.40;;;;;;5114268;28;20092;-80
2022/09/24 12:51:52;;;;;;;3.78;0.80;;;17.60;68.20;;;;;;5114236;28;20081;-79
2022/09/24 12:54:30;;;;;;;5.57;0.90;;;18.00;65.40;;;;;;5114246;28;20046;-79
2022/09/24 12:57:12;;;;;;;6.22;1.00;;;18.30;64.90;;;;;;5114366;28;20398;-79
2022/09/24 12:59:59;;;;;;;5.25;1.27;;;18.50;63.20;;;;;;5114005;28;20039;-79
2022/09/24 13:02:41;;;;;;;5.45;0.82;;;18.50;63.40;;;;;;5097260;28;20419;-81
2022/09/24 13:05:27;;;;;;;3.42;0.68;;;18.40;63.40;;;;;;5113806;28;20035;-80
2022/09/24 13:08:03;;;;;;;3.67;0.90;;;18.20;63.30;;;;;;5114130;28;20108;-80
2022/09/24 13:10:31;;;;;;;4.03;1.02;;;18.30;63.80;;;;;;5102484;28;20071;-80
2022/09/24 13:13:01;;;;;;;3.40;1.08;;;18.50;64.00;;;;;;5093360;28;20563;-78
2022/09/24 13:15:39;;;;;;;4.30;1.00;;;18.70;64.10;;;;;;5101318;28;20124;-79
2022/09/24 13:18:07;;;;;;;4.40;0.82;;;19.00;63.70;;;;;;5093296;28;20043;-79
2022/09/24 13:20:35;;;;;;;6.57;1.05;;;19.30;62.90;;;;;;5093191;28;20039;-79
2022/09/24 13:23:20;;;;;;;5.68;0.90;;;19.50;61.80;;;;;;5076306;28;20075;-79
2022/09/24 13:26:07;;;;;;;4.97;1.08;;;19.50;61.80;;;;;;5075823;28;20067;-79